createdAt,value
2022-09-12T00:01:20.258Z,3.83
2022-09-12T00:04:05.805Z,3.88
2022-09-12T00:06:51.359Z,3.70
2022-09-12T00:09:37.014Z,3.97
2022-09-12T00:12:22.408Z,3.70
2022-09-12T00:15:08.869Z,3.83
2022-09-12T00:17:54.283Z,3.30
2022-09-12T00:20:44.434Z,3.40
2022-09-12T00:23:29.669Z,4.15
2022-09-12T00:26:15.879Z,3.80
2022-09-12T00:29:01.667Z,4.25
2022-09-12T00:31:47.727Z,4.53
2022-09-12T00:34:33.108Z,3.92
2022-09-12T00:37:18.736Z,3.92
2022-09-12T00:40:04.655Z,4.25
2022-09-12T00:42:50.134Z,3.97
2022-09-12T00:45:35.635Z,4.40
2022-09-12T00:48:30.535Z,4.30
2022-09-12T00:51:17.462Z,4.18
2022-09-12T00:54:08.170Z,4.40
2022-09-12T00:56:58.136Z,3.95
2022-09-12T01:00:15.659Z,3.90
2022-09-12T01:03:05.666Z,4.30
2022-09-12T01:06:05.160Z,3.88
2022-09-12T01:08:52.664Z,4.18
2022-09-12T01:11:40.198Z,4.28
2022-09-12T01:14:25.775Z,3.83
2022-09-12T01:17:15.236Z,3.90
2022-09-12T01:20:07.052Z,4.00
2022-09-12T01:23:31.109Z,4.10
2022-09-12T01:26:41.579Z,4.05
2022-09-12T01:29:39.966Z,4.35
2022-09-12T01:32:31.616Z,4.15
2022-09-12T01:35:24.753Z,3.90
2022-09-12T01:38:21.989Z,4.50
2022-09-12T01:41:09.942Z,4.03
2022-09-12T01:44:09.328Z,5.10
2022-09-12T01:46:58.029Z,4.28
2022-09-12T01:50:09.634Z,3.90
2022-09-12T01:53:09.763Z,3.92
2022-09-12T01:56:08.330Z,4.25
2022-09-12T01:59:05.070Z,3.95
2022-09-12T02:02:09.653Z,3.95
2022-09-12T02:05:05.789Z,3.72
2022-09-12T02:08:00.916Z,3.30
2022-09-12T02:11:09.094Z,3.35
2022-09-12T02:14:00.467Z,3.53
2022-09-12T02:16:53.309Z,4.35
2022-09-12T02:19:46.498Z,3.42
2022-09-12T02:22:35.075Z,3.08
2022-09-12T02:25:23.751Z,3.30
2022-09-12T02:28:18.713Z,3.38
2022-09-12T02:31:12.146Z,3.20
2022-09-12T02:34:00.116Z,3.60
2022-09-12T02:37:15.360Z,3.40
2022-09-12T02:40:01.175Z,3.20
2022-09-12T02:42:47.005Z,4.25
2022-09-12T02:45:34.321Z,3.08
2022-09-12T02:48:25.209Z,3.35
2022-09-12T02:51:11.798Z,2.70
2022-09-12T02:53:57.548Z,3.70
2022-09-12T02:56:45.024Z,3.47
2022-09-12T02:59:30.479Z,3.42
2022-09-12T03:02:57.532Z,3.22
2022-09-12T03:05:59.668Z,4.25
2022-09-12T03:09:00.385Z,3.25
2022-09-12T03:11:54.778Z,3.50
2022-09-12T03:14:53.862Z,3.33
2022-09-12T03:18:00.720Z,4.40
2022-09-12T03:21:14.464Z,3.67
2022-09-12T03:24:12.482Z,3.63
2022-09-12T03:27:15.380Z,3.58
2022-09-12T03:30:00.949Z,3.25
2022-09-12T03:32:49.164Z,3.50
2022-09-12T03:35:34.716Z,3.55
2022-09-12T03:38:20.193Z,3.38
2022-09-12T03:41:05.777Z,3.42
2022-09-12T03:43:51.357Z,3.63
2022-09-12T03:46:37.154Z,2.88
2022-09-12T03:49:22.642Z,3.55
2022-09-12T03:52:08.095Z,2.90
2022-09-12T03:54:53.653Z,3.30
2022-09-12T03:57:39.287Z,3.30
2022-09-12T04:00:24.690Z,3.20
2022-09-12T04:03:10.110Z,3.30
2022-09-12T04:05:57.779Z,3.25
2022-09-12T04:08:44.221Z,3.75
2022-09-12T04:11:30.017Z,3.63
2022-09-12T04:14:15.254Z,3.55
2022-09-12T04:17:01.455Z,3.63
2022-09-12T04:19:46.879Z,3.45
2022-09-12T04:22:33.299Z,3.38
2022-09-12T04:25:18.868Z,3.00
2022-09-12T04:28:04.409Z,3.72
2022-09-12T04:30:50.502Z,3.75
2022-09-12T04:33:36.755Z,3.60
2022-09-12T04:36:22.802Z,2.95
2022-09-12T04:39:08.475Z,3.25
2022-09-12T04:41:54.316Z,3.28
2022-09-12T04:44:39.742Z,3.30
2022-09-12T04:47:25.015Z,3.55
2022-09-12T04:50:10.688Z,3.25
2022-09-12T04:52:56.493Z,3.33
2022-09-12T04:55:41.885Z,3.65
2022-09-12T04:58:27.020Z,3.95
2022-09-12T05:01:17.298Z,3.70
2022-09-12T05:04:03.760Z,3.53
2022-09-12T05:06:49.607Z,3.35
2022-09-12T05:09:34.959Z,3.63
2022-09-12T05:12:20.329Z,3.67
2022-09-12T05:15:06.960Z,3.42
2022-09-12T05:17:52.183Z,3.50
2022-09-12T05:20:37.625Z,4.28
2022-09-12T05:23:24.786Z,3.67
2022-09-12T05:26:15.493Z,3.25
2022-09-12T05:29:00.838Z,3.80
2022-09-12T05:31:50.000Z,3.15
2022-09-12T05:34:35.432Z,3.50
2022-09-12T05:37:21.180Z,3.40
2022-09-12T05:40:08.515Z,3.58
2022-09-12T05:42:54.193Z,3.60
2022-09-12T05:45:41.327Z,3.63
2022-09-12T05:48:27.282Z,3.75
2022-09-12T05:51:19.310Z,3.63
2022-09-12T05:54:05.854Z,3.60
2022-09-12T05:56:51.429Z,4.45
2022-09-12T05:59:37.441Z,4.03
2022-09-12T06:02:23.326Z,3.50
2022-09-12T06:05:09.202Z,3.50
2022-09-12T06:07:54.303Z,3.90
2022-09-12T06:10:39.807Z,4.57
2022-09-12T06:13:25.463Z,4.78
2022-09-12T06:16:16.315Z,4.88
2022-09-12T06:19:06.600Z,5.13
2022-09-12T06:21:52.645Z,5.15
2022-09-12T06:24:38.326Z,4.70
2022-09-12T06:27:23.829Z,4.80
2022-09-12T06:30:09.876Z,5.00
2022-09-12T06:32:56.859Z,4.75
2022-09-12T06:35:42.043Z,5.10
2022-09-12T06:38:27.477Z,4.95
2022-09-12T06:41:13.642Z,4.90
2022-09-12T06:44:00.298Z,4.20
2022-09-12T06:46:45.933Z,4.38
2022-09-12T06:49:31.747Z,4.57
2022-09-12T06:52:18.034Z,4.38
2022-09-12T06:55:04.074Z,4.25
2022-09-12T06:57:49.581Z,4.00
2022-09-12T07:00:35.132Z,4.60
2022-09-12T07:03:20.519Z,4.13
2022-09-12T07:06:11.638Z,4.20
2022-09-12T07:09:01.553Z,4.28
2022-09-12T07:11:47.239Z,5.38
2022-09-12T07:14:32.345Z,5.72
2022-09-12T07:17:18.027Z,5.28
2022-09-12T07:20:03.480Z,4.32
2022-09-12T07:22:50.685Z,4.47
2022-09-12T07:25:35.993Z,4.07
2022-09-12T07:28:21.546Z,4.40
2022-09-12T07:31:14.177Z,3.97
2022-09-12T07:33:59.876Z,4.22
2022-09-12T07:36:45.456Z,3.83
2022-09-12T07:39:31.032Z,3.28
2022-09-12T07:42:16.877Z,4.28
2022-09-12T07:45:02.417Z,4.25
2022-09-12T07:47:47.648Z,3.47
2022-09-12T07:50:33.541Z,3.53
2022-09-12T07:53:19.258Z,3.13
2022-09-12T07:56:06.509Z,2.80
2022-09-12T07:58:52.354Z,2.90
2022-09-12T08:01:39.327Z,2.83
2022-09-12T08:04:25.214Z,2.90
2022-09-12T08:07:10.472Z,2.90
2022-09-12T08:09:56.816Z,3.08
2022-09-12T08:12:42.657Z,3.30
2022-09-12T08:15:28.075Z,3.17
2022-09-12T08:18:13.604Z,3.17
2022-09-12T08:21:26.626Z,3.42
2022-09-12T08:24:12.693Z,2.83
2022-09-12T08:26:58.161Z,2.90
2022-09-12T08:29:43.676Z,2.80
2022-09-12T08:32:29.263Z,3.00
2022-09-12T08:35:15.061Z,2.67
2022-09-12T08:38:00.849Z,2.80
2022-09-12T08:40:55.670Z,2.53
2022-09-12T08:44:12.960Z,2.80
2022-09-12T08:47:17.516Z,2.75
2022-09-12T08:50:11.573Z,2.45
2022-09-12T08:53:03.320Z,3.17
2022-09-12T08:56:00.008Z,3.17
2022-09-12T08:58:46.325Z,2.80
2022-09-12T09:01:40.627Z,2.88
2022-09-12T09:04:50.777Z,2.72
2022-09-12T09:07:54.977Z,2.47
2022-09-12T09:10:59.643Z,2.55
2022-09-12T09:14:36.174Z,2.42
2022-09-12T09:17:30.579Z,2.80
2022-09-12T09:20:37.713Z,2.42
2022-09-12T09:23:30.924Z,2.60
2022-09-12T09:26:42.823Z,2.28
2022-09-12T09:29:41.990Z,2.45
2022-09-12T09:32:35.443Z,2.00
2022-09-12T09:35:26.721Z,2.30
2022-09-12T09:38:38.958Z,2.20
2022-09-12T09:41:49.705Z,2.60
2022-09-12T09:44:35.056Z,2.38
2022-09-12T09:47:20.981Z,1.90
2022-09-12T09:50:06.809Z,2.10
2022-09-12T09:52:53.984Z,2.10
2022-09-12T09:55:43.541Z,2.22
2022-09-12T09:58:36.657Z,1.95
2022-09-12T10:01:22.727Z,2.15
2022-09-12T10:04:18.725Z,1.92
2022-09-12T10:07:04.903Z,2.20
2022-09-12T10:10:17.267Z,3.05
2022-09-12T10:13:22.620Z,1.90
2022-09-12T10:16:22.072Z,2.05
2022-09-12T10:19:24.651Z,1.80
2022-09-12T10:22:18.115Z,2.00
2022-09-12T10:25:13.346Z,1.80
2022-09-12T10:28:00.613Z,1.65
2022-09-12T10:30:52.736Z,1.70
2022-09-12T10:33:52.803Z,1.60
2022-09-12T10:36:40.458Z,1.50
2022-09-12T10:39:26.137Z,1.70
2022-09-12T10:42:16.801Z,1.83
2022-09-12T10:45:05.063Z,1.55
2022-09-12T10:47:50.728Z,2.15
2022-09-12T10:50:41.394Z,1.50
2022-09-12T10:53:34.577Z,1.70
2022-09-12T10:56:33.594Z,1.60
2022-09-12T10:59:43.544Z,1.75
2022-09-12T11:02:51.932Z,2.13
2022-09-12T11:05:59.875Z,1.70
2022-09-12T11:09:11.046Z,1.60
2022-09-12T11:12:06.746Z,1.48
2022-09-12T11:14:57.767Z,1.60
2022-09-12T11:17:51.989Z,1.27
2022-09-12T11:21:09.756Z,1.50
2022-09-12T11:24:13.998Z,1.60
2022-09-12T11:27:11.867Z,1.60
2022-09-12T11:29:58.793Z,2.28
2022-09-12T11:33:28.101Z,1.60
2022-09-12T11:36:47.867Z,1.40
2022-09-12T11:39:40.437Z,1.40
2022-09-12T11:42:33.121Z,1.33
2022-09-12T11:45:41.119Z,1.02
2022-09-12T11:48:44.818Z,1.10
2022-09-12T11:51:52.524Z,1.00
2022-09-12T11:54:59.729Z,1.73
2022-09-12T11:57:56.067Z,2.03
2022-09-12T12:00:50.893Z,1.20
2022-09-12T12:03:46.697Z,1.00
2022-09-12T12:06:46.874Z,1.00
2022-09-12T12:09:33.275Z,0.90
2022-09-12T12:12:24.206Z,0.95
2022-09-12T12:15:16.205Z,0.68
2022-09-12T12:18:15.218Z,0.85
2022-09-12T12:21:31.321Z,1.15
2022-09-12T12:24:30.609Z,1.00
2022-09-12T12:27:47.867Z,1.00
2022-09-12T12:30:33.521Z,1.00
2022-09-12T12:33:21.938Z,0.80
2022-09-12T12:36:30.848Z,0.90
2022-09-12T12:42:35.224Z,0.90
2022-09-12T12:45:26.686Z,1.15
2022-09-12T12:48:17.600Z,0.75
2022-09-12T12:51:53.442Z,0.80
2022-09-12T12:54:42.023Z,0.80
2022-09-12T12:57:48.087Z,0.83
2022-09-12T13:00:36.375Z,0.77
2022-09-12T13:03:31.477Z,0.80
2022-09-12T13:06:41.297Z,0.77
2022-09-12T13:09:39.585Z,0.70
2022-09-12T13:12:31.508Z,1.20
2022-09-12T13:15:35.962Z,0.70
2022-09-12T13:18:33.303Z,0.77
2022-09-12T13:21:21.654Z,0.80
2022-09-12T13:24:15.840Z,0.85
2022-09-12T13:27:02.159Z,0.70
2022-09-12T13:29:48.023Z,0.65
2022-09-12T13:32:33.780Z,0.60
2022-09-12T13:35:46.134Z,0.60
2022-09-12T13:39:09.496Z,0.50
2022-09-12T13:42:32.287Z,0.68
2022-09-12T13:45:28.478Z,0.63
2022-09-12T13:48:19.226Z,1.05
2022-09-12T13:51:06.089Z,0.60
2022-09-12T13:53:56.180Z,0.70
2022-09-12T13:56:49.914Z,0.65
2022-09-12T13:59:39.933Z,0.88
2022-09-12T14:02:28.710Z,0.70
2022-09-12T14:05:26.152Z,0.85
2022-09-12T14:08:15.226Z,1.00
2022-09-12T14:11:00.583Z,0.70
2022-09-12T14:13:46.065Z,1.00
2022-09-12T14:16:38.817Z,0.70
2022-09-12T14:19:26.013Z,0.90
2022-09-12T14:22:18.060Z,0.68
2022-09-12T14:25:04.345Z,0.70
2022-09-12T14:27:55.062Z,0.60
2022-09-12T14:30:40.713Z,0.80
2022-09-12T14:33:26.517Z,1.15
2022-09-12T14:36:39.408Z,0.93
2022-09-12T14:39:40.076Z,0.70
2022-09-12T14:42:30.936Z,0.70
2022-09-12T14:45:29.791Z,0.50
2022-09-12T14:48:19.179Z,0.60
2022-09-12T14:51:05.136Z,0.70
2022-09-12T14:53:51.221Z,0.68
2022-09-12T14:56:53.035Z,0.70
2022-09-12T14:59:40.706Z,0.75
2022-09-12T15:02:26.991Z,0.70
2022-09-12T15:05:12.566Z,0.80
2022-09-12T15:08:00.181Z,0.70
2022-09-12T15:10:45.670Z,0.65
2022-09-12T15:13:39.976Z,0.70
2022-09-12T15:16:25.620Z,0.73
2022-09-12T15:19:11.287Z,0.75
2022-09-12T15:21:56.879Z,0.60
2022-09-12T15:24:42.438Z,0.50
2022-09-12T15:27:27.913Z,0.82
2022-09-12T15:30:14.483Z,0.65
2022-09-12T15:33:00.115Z,0.90
2022-09-12T15:35:46.107Z,0.90
2022-09-12T15:38:32.006Z,0.80
2022-09-12T15:41:20.270Z,1.00
2022-09-12T15:44:10.880Z,0.90
2022-09-12T15:46:56.356Z,1.20
2022-09-12T15:49:42.009Z,1.02
2022-09-12T15:52:27.345Z,1.05
2022-09-12T15:55:24.868Z,1.08
2022-09-12T15:58:10.676Z,1.08
2022-09-12T16:00:56.212Z,0.98
2022-09-12T16:03:42.228Z,1.30
2022-09-12T16:06:33.624Z,1.30
2022-09-12T16:09:22.611Z,1.67
2022-09-12T16:12:09.201Z,1.38
2022-09-12T16:14:54.547Z,1.33
2022-09-12T16:17:39.982Z,1.08
2022-09-12T16:20:26.053Z,1.40
2022-09-12T16:23:12.636Z,1.50
2022-09-12T16:26:04.576Z,1.30
2022-09-12T16:28:58.132Z,1.40
2022-09-12T16:31:43.817Z,1.30
2022-09-12T16:34:29.574Z,1.25
2022-09-12T16:37:15.020Z,1.30
2022-09-12T16:40:01.792Z,1.10
2022-09-12T16:42:47.830Z,1.20
2022-09-12T16:45:33.347Z,1.20
2022-09-12T16:48:19.025Z,1.10
2022-09-12T16:51:06.828Z,1.27
2022-09-12T16:53:52.740Z,1.00
2022-09-12T16:56:38.463Z,1.13
2022-09-12T16:59:23.750Z,1.20
2022-09-12T17:02:13.978Z,1.20
2022-09-12T17:04:59.435Z,1.42
2022-09-12T17:07:44.912Z,1.00
2022-09-12T17:10:30.928Z,1.40
2022-09-12T17:13:16.283Z,1.20
2022-09-12T17:16:08.250Z,1.58
2022-09-12T17:18:54.325Z,1.38
2022-09-12T17:21:39.504Z,1.15
2022-09-12T17:24:25.278Z,1.83
2022-09-12T17:27:11.474Z,1.27
2022-09-12T17:29:56.898Z,2.20
2022-09-12T17:32:42.351Z,1.40
2022-09-12T17:35:27.819Z,1.38
2022-09-12T17:38:16.961Z,1.33
2022-09-12T17:41:08.420Z,1.17
2022-09-12T17:46:42.863Z,1.20
2022-09-12T17:49:28.618Z,1.23
2022-09-12T17:52:13.991Z,1.20
2022-09-12T17:54:59.635Z,1.30
2022-09-12T17:57:46.197Z,1.30
2022-09-12T18:00:50.792Z,1.42
2022-09-12T18:03:36.245Z,1.15
2022-09-12T18:06:23.180Z,1.30
2022-09-12T18:09:10.069Z,1.30
2022-09-12T18:11:56.327Z,1.13
2022-09-12T18:14:41.928Z,1.30
2022-09-12T18:17:27.986Z,1.05
2022-09-12T18:20:14.236Z,1.13
2022-09-12T18:23:00.076Z,1.42
2022-09-12T18:25:45.917Z,1.40
2022-09-12T18:28:41.511Z,1.35
2022-09-12T18:31:31.182Z,1.02
2022-09-12T18:34:18.172Z,1.20
2022-09-12T18:37:05.401Z,1.25
2022-09-12T18:39:51.433Z,1.60
2022-09-12T18:42:40.391Z,1.42
2022-09-12T18:45:29.853Z,1.20
2022-09-12T18:48:14.930Z,1.30
2022-09-12T18:51:07.990Z,1.35
2022-09-12T18:53:59.925Z,1.35
2022-09-12T18:56:45.958Z,1.13
2022-09-12T18:59:31.809Z,1.50
2022-09-12T19:02:17.512Z,1.60
2022-09-12T19:05:02.815Z,1.60
2022-09-12T19:07:51.096Z,1.33
2022-09-12T19:10:38.116Z,1.63
2022-09-12T19:13:23.922Z,1.52
2022-09-12T19:16:12.721Z,1.40
2022-09-12T19:18:59.159Z,1.42
2022-09-12T19:21:45.667Z,1.67
2022-09-12T19:24:32.499Z,1.30
2022-09-12T19:27:20.225Z,1.60
2022-09-12T19:30:12.210Z,1.60
2022-09-12T19:33:00.261Z,1.60
2022-09-12T19:35:47.042Z,1.23
2022-09-12T19:38:32.617Z,1.77
2022-09-12T19:41:19.139Z,1.77
2022-09-12T19:44:04.950Z,1.65
2022-09-12T19:46:51.733Z,1.50
2022-09-12T19:49:39.299Z,1.30
2022-09-12T19:52:25.015Z,1.90
2022-09-12T19:55:10.569Z,1.50
2022-09-12T19:58:17.516Z,1.80
2022-09-12T20:01:14.178Z,1.73
2022-09-12T20:03:59.933Z,1.52
2022-09-12T20:06:45.349Z,1.70
2022-09-12T20:09:31.608Z,1.73
2022-09-12T20:12:17.502Z,1.60
2022-09-12T20:15:04.201Z,1.80
2022-09-12T20:17:54.778Z,1.48
2022-09-12T20:20:40.389Z,1.83
2022-09-12T20:23:26.001Z,2.00
2022-09-12T20:26:11.754Z,1.70
2022-09-12T20:28:57.192Z,1.73
2022-09-12T20:31:43.815Z,1.55
2022-09-12T20:34:29.336Z,1.90
2022-09-12T20:37:16.442Z,1.83
2022-09-12T20:40:04.794Z,2.00
2022-09-12T20:42:50.340Z,1.83
2022-09-12T20:45:41.137Z,2.00
2022-09-12T20:48:27.101Z,1.80
2022-09-12T20:51:13.895Z,2.00
2022-09-12T20:54:03.253Z,1.80
2022-09-12T20:56:48.933Z,2.00
2022-09-12T20:59:39.360Z,1.80
2022-09-12T21:02:25.331Z,1.70
2022-09-12T21:05:10.895Z,2.05
2022-09-12T21:07:56.643Z,2.20
2022-09-12T21:10:42.971Z,2.08
2022-09-12T21:13:28.447Z,1.90
2022-09-12T21:16:16.229Z,1.95
2022-09-12T21:19:01.720Z,1.80
2022-09-12T21:21:47.169Z,1.98
2022-09-12T21:24:32.715Z,1.77
2022-09-12T21:27:19.430Z,1.98
2022-09-12T21:30:05.683Z,1.95
2022-09-12T21:32:51.696Z,1.75
2022-09-12T21:35:37.918Z,1.98
2022-09-12T21:38:23.579Z,2.90
2022-09-12T21:41:14.716Z,2.15
2022-09-12T21:44:00.334Z,2.03
2022-09-12T21:46:47.307Z,2.00
2022-09-12T21:49:33.022Z,2.00
2022-09-12T21:52:18.542Z,1.90
2022-09-12T21:55:05.733Z,1.70
2022-09-12T21:57:51.620Z,2.10
2022-09-12T22:00:38.394Z,1.85
2022-09-12T22:03:24.299Z,1.92
2022-09-12T22:06:10.285Z,2.13
2022-09-12T22:08:56.290Z,1.98
2022-09-12T22:11:41.751Z,2.10
2022-09-12T22:14:26.919Z,1.83
2022-09-12T22:17:13.091Z,1.95
2022-09-12T22:19:58.967Z,1.90
2022-09-12T22:23:02.842Z,2.30
2022-09-12T22:25:48.476Z,1.90
2022-09-12T22:28:35.518Z,2.15
2022-09-12T22:31:22.205Z,3.22
2022-09-12T22:34:07.539Z,2.10
2022-09-12T22:36:53.371Z,2.00
2022-09-12T22:39:40.453Z,2.20
2022-09-12T22:42:26.560Z,2.47
2022-09-12T22:45:11.963Z,2.60
2022-09-12T22:48:00.752Z,2.80
2022-09-12T22:50:46.318Z,2.78
2022-09-12T22:53:31.990Z,2.70
2022-09-12T22:56:17.777Z,2.58
2022-09-12T22:59:04.167Z,2.83
2022-09-12T23:01:49.911Z,2.47
2022-09-12T23:04:35.320Z,2.40
2022-09-12T23:07:21.264Z,2.50
2022-09-12T23:10:07.198Z,2.25
2022-09-12T23:12:53.750Z,2.45
2022-09-12T23:15:40.372Z,2.67
2022-09-12T23:18:26.151Z,2.95
2022-09-12T23:21:13.265Z,2.65
2022-09-12T23:23:58.836Z,2.40
2022-09-12T23:26:44.371Z,2.30
2022-09-12T23:29:30.004Z,2.03
2022-09-12T23:32:15.646Z,2.35
2022-09-12T23:35:01.361Z,1.85
2022-09-12T23:37:47.480Z,2.03
2022-09-12T23:40:33.403Z,1.90
2022-09-12T23:43:18.866Z,2.08
2022-09-12T23:46:05.103Z,2.13
2022-09-12T23:48:53.170Z,2.22
2022-09-12T23:51:39.003Z,1.83
2022-09-12T23:54:25.206Z,2.03
2022-09-12T23:57:10.947Z,1.98
2022-09-12T23:59:56.576Z,1.80
